Time;durP1;ratioP1;P1;durP2;ratioP2;P2;SDS_P1;SDS_P2;PMS_P1;PMS_P2;Temp;Humidity;BMP_temperature;BMP_pressure;BME280_temperature;BME280_humidity;BME280_pressure;Samples;Min_cycle;Max_cycle;Signal;HPM_P1;HPM_P2
2022/01/07 00:02:24;;;;;;;0.10;0.10;;;2.90;99.90;;;;;;4960083;28;20117;-70
2022/01/07 00:04:50;;;;;;;0.00;0.00;;;2.90;99.90;;;;;;4957510;28;20698;-68
2022/01/07 00:07:16;;;;;;;0.35;0.32;;;3.40;99.90;;;;;;4958628;28;20042;-68
2022/01/07 00:09:42;;;;;;;0.00;0.00;;;3.00;99.90;;;;;;4959981;28;20047;-68
2022/01/07 00:12:08;;;;;;;0.55;0.55;;;3.00;99.90;;;;;;4958258;28;20055;-68
2022/01/07 00:14:33;;;;;;;0.00;0.00;;;3.00;99.90;;;;;;4958434;28;20057;-69
2022/01/07 00:16:59;;;;;;;0.38;0.38;;;3.00;99.90;;;;;;4959813;28;20065;-68
2022/01/07 00:19:25;;;;;;;0.00;0.00;;;3.30;99.90;;;;;;4958762;28;20047;-68
2022/01/07 00:21:51;;;;;;;0.00;0.00;;;3.00;99.90;;;;;;4957714;28;20095;-69
2022/01/07 00:24:16;;;;;;;0.00;0.00;;;3.00;99.90;;;;;;4959042;28;20051;-68
2022/01/07 00:26:42;;;;;;;0.00;0.00;;;3.00;99.90;;;;;;4959860;28;20046;-68
2022/01/07 00:29:08;;;;;;;0.00;0.00;;;3.00;99.90;;;;;;4968814;28;20050;-68
2022/01/07 00:31:33;;;;;;;0.00;0.00;;;3.00;99.90;;;;;;4943037;28;20046;-68
2022/01/07 00:33:59;;;;;;;0.00;0.00;;;3.00;99.90;;;;;;4957751;28;20047;-68
2022/01/07 00:36:24;;;;;;;0.00;0.00;;;3.00;99.90;;;;;;4957436;28;20725;-68
2022/01/07 00:38:50;;;;;;;0.00;0.00;;;3.00;99.90;;;;;;4959039;28;20732;-68
2022/01/07 00:41:16;;;;;;;0.40;0.40;;;3.00;99.90;;;;;;4959820;28;20042;-70
2022/01/07 00:43:42;;;;;;;0.05;0.05;;;3.00;99.90;;;;;;4958872;28;20053;-68
2022/01/07 00:46:07;;;;;;;0.00;0.00;;;2.90;99.90;;;;;;4959460;28;20039;-68
2022/01/07 00:48:33;;;;;;;0.10;0.10;;;2.90;99.90;;;;;;4959791;28;20100;-68
2022/01/07 00:50:58;;;;;;;0.00;0.00;;;2.90;99.90;;;;;;4957312;28;20049;-69
2022/01/07 00:53:24;;;;;;;0.00;0.00;;;3.00;99.90;;;;;;4941597;28;20038;-68
2022/01/07 00:55:50;;;;;;;0.00;0.00;;;2.90;99.90;;;;;;4959045;28;20128;-68
2022/01/07 00:58:15;;;;;;;0.00;0.00;;;3.70;99.90;;;;;;4958373;28;20863;-69
2022/01/07 01:00:41;;;;;;;0.00;0.00;;;2.90;99.90;;;;;;4958725;28;20158;-70
2022/01/07 01:03:06;;;;;;;0.63;0.55;;;3.20;99.90;;;;;;4957605;28;20046;-69
2022/01/07 01:05:32;;;;;;;0.00;0.00;;;2.90;99.90;;;;;;4958535;28;20039;-69
2022/01/07 01:07:59;;;;;;;0.00;0.00;;;2.90;99.90;;;;;;4959347;28;20047;-69
2022/01/07 01:10:26;;;;;;;0.00;0.00;;;2.90;99.90;;;;;;4958605;28;20429;-69
2022/01/07 01:12:53;;;;;;;0.20;0.20;;;2.90;99.90;;;;;;4957293;28;20063;-69
2022/01/07 01:15:22;;;;;;;0.00;0.00;;;2.80;99.90;;;;;;4957626;28;20054;-69
2022/01/07 01:17:49;;;;;;;0.00;0.00;;;2.80;99.90;;;;;;4957855;28;20067;-69
2022/01/07 01:20:15;;;;;;;15.90;0.57;;;4.20;99.90;;;;;;4956262;28;20096;-69
2022/01/07 01:22:41;;;;;;;0.00;0.00;;;2.60;99.90;;;;;;4957788;28;20599;-70
2022/01/07 01:25:07;;;;;;;0.00;0.00;;;2.60;99.90;;;;;;4959112;28;20100;-69
2022/01/07 01:27:33;;;;;;;0.00;0.00;;;2.50;99.90;;;;;;4961208;28;20107;-70
2022/01/07 01:30:01;;;;;;;0.00;0.00;;;2.50;99.90;;;;;;4967415;28;20670;-70
2022/01/07 01:32:26;;;;;;;0.00;0.00;;;2.40;99.90;;;;;;4957784;28;20457;-70
2022/01/07 01:34:52;;;;;;;0.10;0.10;;;2.40;99.90;;;;;;4957625;28;20046;-69
2022/01/07 01:37:18;;;;;;;0.00;0.00;;;2.30;99.90;;;;;;4958479;28;20043;-69
2022/01/07 01:39:43;;;;;;;0.00;0.00;;;2.40;99.90;;;;;;4958344;28;20043;-70
2022/01/07 01:42:09;;;;;;;0.00;0.00;;;2.30;99.90;;;;;;4958114;28;20081;-70
2022/01/07 01:44:35;;;;;;;0.08;0.08;;;2.30;99.90;;;;;;4957457;28;20050;-68
2022/01/07 01:47:02;;;;;;;0.00;0.00;;;2.30;99.90;;;;;;4958424;28;20054;-69
2022/01/07 01:49:29;;;;;;;0.00;0.00;;;2.30;99.90;;;;;;4958290;28;20196;-69
2022/01/07 01:51:55;;;;;;;0.00;0.00;;;2.20;99.90;;;;;;4960366;28;20443;-68
2022/01/07 01:54:21;;;;;;;0.00;0.00;;;2.20;99.90;;;;;;4960841;28;20042;-69
2022/01/07 01:56:47;;;;;;;0.00;0.00;;;2.20;99.90;;;;;;4959703;28;20058;-69
2022/01/07 01:59:13;;;;;;;0.00;0.00;;;2.20;99.90;;;;;;4962191;28;20513;-69
2022/01/07 02:01:40;;;;;;;0.00;0.00;;;2.20;99.90;;;;;;4981584;23;20035;-64
2022/01/07 02:04:06;;;;;;;0.00;0.00;;;2.10;99.90;;;;;;5033444;28;20119;-64
2022/01/07 02:06:32;;;;;;;0.00;0.00;;;2.10;99.90;;;;;;5023774;28;20446;-64
2022/01/07 02:08:58;;;;;;;0.15;0.15;;;2.10;99.90;;;;;;5042714;28;20052;-64
2022/01/07 02:11:23;;;;;;;0.00;0.00;;;2.10;99.90;;;;;;5044193;28;20099;-64
2022/01/07 02:13:55;;;;;;;0.08;0.08;;;2.00;99.90;;;;;;5044364;28;20152;-63
2022/01/07 02:16:25;;;;;;;0.13;0.13;;;2.00;99.90;;;;;;5044146;28;20439;-63
2022/01/07 02:18:50;;;;;;;0.00;0.00;;;2.00;99.90;;;;;;5043894;28;20045;-64
2022/01/07 02:21:16;;;;;;;0.00;0.00;;;2.00;99.90;;;;;;5043815;28;20091;-63
2022/01/07 02:23:42;;;;;;;1.00;1.00;;;2.00;99.90;;;;;;5025557;28;20045;-63
2022/01/07 02:26:08;;;;;;;0.00;0.00;;;1.90;99.90;;;;;;5044023;28;20043;-62
2022/01/07 02:28:34;;;;;;;0.10;0.10;;;1.90;99.90;;;;;;5036259;28;20045;-64
2022/01/07 02:31:00;;;;;;;0.00;0.00;;;1.90;99.90;;;;;;5028527;28;20140;-64
2022/01/07 02:33:26;;;;;;;0.47;0.35;;;1.90;99.90;;;;;;5023588;28;20049;-64
2022/01/07 02:35:51;;;;;;;0.00;0.00;;;2.30;99.90;;;;;;5022933;28;20041;-64
2022/01/07 02:38:18;;;;;;;0.00;0.00;;;1.90;99.90;;;;;;5024179;28;20403;-62
2022/01/07 02:40:44;;;;;;;0.30;0.30;;;1.90;99.90;;;;;;5023697;28;20056;-63
2022/01/07 02:43:10;;;;;;;0.00;0.00;;;1.90;99.90;;;;;;5023231;28;20107;-62
2022/01/07 02:45:36;;;;;;;0.00;0.00;;;1.90;99.90;;;;;;5023917;28;20052;-63
2022/01/07 02:48:03;;;;;;;0.00;0.00;;;1.90;99.90;;;;;;5023669;28;20268;-63
2022/01/07 02:50:36;;;;;;;0.20;0.20;;;1.80;99.90;;;;;;5021887;28;20046;-63
2022/01/07 02:53:04;;;;;;;0.00;0.00;;;1.80;99.90;;;;;;5024031;28;20466;-63
2022/01/07 02:55:30;;;;;;;0.00;0.00;;;1.80;99.90;;;;;;5024292;28;20060;-63
2022/01/07 02:57:56;;;;;;;0.10;0.10;;;1.80;99.90;;;;;;5023246;28;20049;-64
2022/01/07 03:00:23;;;;;;;0.00;0.00;;;1.70;99.90;;;;;;5023220;28;20048;-64
2022/01/07 03:02:50;;;;;;;0.00;0.00;;;1.80;99.90;;;;;;5022730;28;20479;-64
2022/01/07 03:05:17;;;;;;;0.00;0.00;;;1.70;99.90;;;;;;5022599;28;20144;-63
2022/01/07 03:07:47;;;;;;;0.00;0.00;;;1.80;99.90;;;;;;5023142;28;20083;-62
2022/01/07 03:10:14;;;;;;;0.70;0.52;;;1.70;99.90;;;;;;5023464;28;20045;-62
2022/01/07 03:12:42;;;;;;;0.00;0.00;;;1.70;99.90;;;;;;5022863;28;20124;-62
2022/01/07 03:15:12;;;;;;;0.00;0.00;;;1.70;99.90;;;;;;5038557;28;20049;-63
2022/01/07 03:17:39;;;;;;;0.00;0.00;;;1.70;99.90;;;;;;5023061;28;20068;-63
2022/01/07 03:20:10;;;;;;;0.90;0.70;;;1.70;99.90;;;;;;5021069;28;20111;-63
2022/01/07 03:22:36;;;;;;;0.00;0.00;;;1.60;99.90;;;;;;5023307;28;20711;-62
2022/01/07 03:25:03;;;;;;;0.00;0.00;;;1.60;99.90;;;;;;5022675;28;20029;-63
2022/01/07 03:27:29;;;;;;;0.00;0.00;;;1.70;99.90;;;;;;5023894;28;20056;-63
2022/01/07 03:29:54;;;;;;;0.00;0.00;;;1.60;99.90;;;;;;5031847;28;20049;-63
2022/01/07 03:32:20;;;;;;;0.32;0.32;;;1.60;99.90;;;;;;5038392;28;20042;-62
2022/01/07 03:34:46;;;;;;;0.00;0.00;;;1.60;99.90;;;;;;5021278;28;20608;-63
2022/01/07 03:37:11;;;;;;;0.10;0.10;;;1.70;99.90;;;;;;5021772;28;20476;-62
2022/01/07 03:39:37;;;;;;;0.00;0.00;;;1.60;99.90;;;;;;5022856;28;20106;-62
2022/01/07 03:42:03;;;;;;;0.00;0.00;;;1.60;99.90;;;;;;5022515;28;20057;-62
2022/01/07 03:44:29;;;;;;;0.00;0.00;;;1.60;99.90;;;;;;5022462;28;20474;-62
2022/01/07 03:46:54;;;;;;;0.00;0.00;;;2.90;99.90;;;;;;5037759;28;20096;-62
2022/01/07 03:49:20;;;;;;;0.00;0.00;;;1.60;99.90;;;;;;5022092;28;20124;-62
2022/01/07 03:51:46;;;;;;;0.00;0.00;;;1.70;99.90;;;;;;5022192;28;20053;-62
2022/01/07 03:54:11;;;;;;;0.00;0.00;;;1.60;99.90;;;;;;5022129;28;20044;-62
2022/01/07 03:56:37;;;;;;;0.00;0.00;;;1.60;99.90;;;;;;5022267;28;20111;-62
2022/01/07 03:59:03;;;;;;;0.00;0.00;;;1.70;99.90;;;;;;5022286;28;20045;-62
2022/01/07 04:01:29;;;;;;;0.00;0.00;;;1.50;99.90;;;;;;5022270;28;20123;-62
2022/01/07 04:03:55;;;;;;;0.00;0.00;;;1.60;99.90;;;;;;5021343;28;20049;-62
2022/01/07 04:06:20;;;;;;;0.00;0.00;;;1.70;99.90;;;;;;5022305;28;20553;-62
2022/01/07 04:08:49;;;;;;;0.10;0.10;;;1.60;99.90;;;;;;5021781;28;20099;-62
2022/01/07 04:11:15;;;;;;;0.90;0.47;;;1.60;99.90;;;;;;5021726;28;20049;-62
2022/01/07 04:13:41;;;;;;;0.00;0.00;;;1.70;99.90;;;;;;5021151;28;20034;-62
2022/01/07 04:16:07;;;;;;;11.40;2.17;;;1.70;99.90;;;;;;5021944;28;20068;-62
2022/01/07 04:18:33;;;;;;;0.00;0.00;;;1.30;99.90;;;;;;5022569;28;20404;-62
2022/01/07 04:20:59;;;;;;;0.00;0.00;;;1.70;99.90;;;;;;5020395;28;20459;-62
2022/01/07 04:23:24;;;;;;;0.00;0.00;;;1.70;99.90;;;;;;5022062;28;20037;-62
2022/01/07 04:25:50;;;;;;;0.00;0.00;;;1.70;99.90;;;;;;5021546;28;20723;-62
2022/01/07 04:28:16;;;;;;;0.00;0.00;;;1.80;99.90;;;;;;5025908;28;20041;-62
2022/01/07 04:30:44;;;;;;;0.10;0.10;;;1.70;99.90;;;;;;5028275;28;20448;-62
2022/01/07 04:33:14;;;;;;;0.00;0.00;;;1.70;99.90;;;;;;5020299;28;20052;-62
2022/01/07 04:35:41;;;;;;;0.00;0.00;;;1.80;99.90;;;;;;5020794;28;20054;-62
2022/01/07 04:38:08;;;;;;;0.00;0.00;;;1.80;99.90;;;;;;5021188;28;20113;-63
2022/01/07 04:40:34;;;;;;;0.63;0.63;;;1.80;99.90;;;;;;5021764;28;20056;-62
2022/01/07 04:43:04;;;;;;;0.00;0.00;;;1.80;99.90;;;;;;5021844;28;20069;-62
2022/01/07 04:45:31;;;;;;;0.08;0.08;;;1.80;99.90;;;;;;5021934;28;20045;-62
2022/01/07 04:47:57;;;;;;;0.00;0.00;;;1.80;99.90;;;;;;5020601;28;20037;-61
2022/01/07 04:50:23;;;;;;;0.00;0.00;;;1.80;99.90;;;;;;5020480;28;20062;-62
2022/01/07 04:52:49;;;;;;;0.22;0.22;;;1.90;99.90;;;;;;5021268;28;20041;-62
2022/01/07 04:55:18;;;;;;;0.00;0.00;;;1.80;99.90;;;;;;5021101;28;20503;-62
2022/01/07 04:57:45;;;;;;;0.68;0.68;;;1.80;99.90;;;;;;5021096;28;20049;-62
2022/01/07 05:00:12;;;;;;;0.00;0.00;;;1.80;99.90;;;;;;5021591;28;20045;-63
2022/01/07 05:02:38;;;;;;;0.00;0.00;;;1.90;99.90;;;;;;5020887;28;20072;-62
2022/01/07 05:05:04;;;;;;;0.00;0.00;;;1.80;99.90;;;;;;5019806;28;20046;-62
2022/01/07 05:07:30;;;;;;;0.00;0.00;;;1.80;99.90;;;;;;5021712;28;20033;-63
2022/01/07 05:09:55;;;;;;;0.00;0.00;;;1.90;99.90;;;;;;5020959;28;20045;-63
2022/01/07 05:12:21;;;;;;;0.00;0.00;;;1.90;99.90;;;;;;5021396;28;20503;-61
2022/01/07 05:14:47;;;;;;;0.00;0.00;;;2.00;99.90;;;;;;5020381;28;20119;-62
2022/01/07 05:17:12;;;;;;;0.00;0.00;;;2.00;99.90;;;;;;5019917;28;20200;-62
2022/01/07 05:19:38;;;;;;;0.00;0.00;;;2.00;99.90;;;;;;5020114;28;20048;-62
2022/01/07 05:22:04;;;;;;;0.63;0.63;;;2.00;99.90;;;;;;5020826;28;20049;-62
2022/01/07 05:24:29;;;;;;;0.00;0.00;;;2.00;99.90;;;;;;5020460;28;20038;-62
2022/01/07 05:26:55;;;;;;;0.00;0.00;;;2.10;99.90;;;;;;5021025;28;20124;-61
2022/01/07 05:29:21;;;;;;;0.20;0.20;;;2.10;99.90;;;;;;5032124;28;20516;-61
2022/01/07 05:31:46;;;;;;;0.00;0.00;;;2.10;99.90;;;;;;5020524;28;20253;-62
2022/01/07 05:34:12;;;;;;;0.10;0.10;;;2.10;99.90;;;;;;5018532;28;20091;-62
2022/01/07 05:36:38;;;;;;;0.00;0.00;;;2.10;99.90;;;;;;5020521;28;20420;-62
2022/01/07 05:39:06;;;;;;;0.00;0.00;;;2.10;99.90;;;;;;5020590;28;20064;-62
2022/01/07 05:41:32;;;;;;;0.10;0.10;;;2.20;99.90;;;;;;5021423;28;20491;-62
2022/01/07 05:43:58;;;;;;;0.50;0.38;;;2.20;99.90;;;;;;5020034;28;20527;-62
2022/01/07 05:46:24;;;;;;;0.15;0.15;;;2.10;99.90;;;;;;5020887;28;20092;-61
2022/01/07 05:48:50;;;;;;;0.00;0.00;;;2.20;99.90;;;;;;5019629;28;20038;-62
2022/01/07 05:51:16;;;;;;;0.20;0.20;;;2.20;99.90;;;;;;5020505;28;20111;-62
2022/01/07 05:53:42;;;;;;;0.00;0.00;;;2.20;99.90;;;;;;5020263;28;20125;-62
2022/01/07 05:56:08;;;;;;;0.00;0.00;;;2.60;99.90;;;;;;5035971;28;20567;-61
2022/01/07 05:58:34;;;;;;;0.10;0.10;;;2.20;99.90;;;;;;5019454;28;20479;-62
2022/01/07 06:01:00;;;;;;;0.00;0.00;;;2.20;99.90;;;;;;5020055;28;20088;-62
2022/01/07 06:03:26;;;;;;;0.00;0.00;;;2.20;99.90;;;;;;5020606;28;20177;-64
2022/01/07 06:05:51;;;;;;;0.00;0.00;;;2.50;99.90;;;;;;5020042;28;20053;-61
2022/01/07 06:08:17;;;;;;;0.00;0.00;;;2.20;99.90;;;;;;5020644;28;20541;-65
2022/01/07 06:10:43;;;;;;;0.10;0.10;;;2.30;99.90;;;;;;5019859;28;20057;-63
2022/01/07 06:13:09;;;;;;;0.00;0.00;;;2.30;99.90;;;;;;5020275;28;20097;-62
2022/01/07 06:15:34;;;;;;;0.00;0.00;;;2.30;99.90;;;;;;5019131;28;20049;-62
2022/01/07 06:18:03;;;;;;;0.10;0.10;;;2.30;99.90;;;;;;5018932;28;20037;-62
2022/01/07 06:20:29;;;;;;;0.00;0.00;;;2.30;99.90;;;;;;5034976;28;20041;-62
2022/01/07 06:22:54;;;;;;;0.00;0.00;;;2.40;99.90;;;;;;5020452;28;20110;-61
2022/01/07 06:25:20;;;;;;;0.00;0.00;;;2.30;99.90;;;;;;5020293;28;20051;-62
2022/01/07 06:27:46;;;;;;;0.10;0.10;;;2.30;99.90;;;;;;5022867;28;20045;-62
2022/01/07 06:30:12;;;;;;;0.10;0.10;;;2.40;99.90;;;;;;5027987;28;20455;-62
2022/01/07 06:32:37;;;;;;;0.00;0.00;;;2.40;99.90;;;;;;5020274;28;20120;-62
2022/01/07 06:35:04;;;;;;;0.00;0.00;;;2.30;99.90;;;;;;5019201;28;20779;-64
2022/01/07 06:37:29;;;;;;;0.00;0.00;;;2.30;99.90;;;;;;5023119;28;20084;-62
2022/01/07 06:39:56;;;;;;;0.00;0.00;;;2.40;99.90;;;;;;5038751;28;20076;-61
2022/01/07 06:42:22;;;;;;;0.00;0.00;;;2.40;99.90;;;;;;5023537;28;20049;-62
2022/01/07 06:44:48;;;;;;;0.00;0.00;;;2.40;99.90;;;;;;5023864;28;20049;-61
2022/01/07 06:47:13;;;;;;;0.00;0.00;;;2.40;99.90;;;;;;5022994;28;20064;-64
2022/01/07 06:49:39;;;;;;;0.10;0.10;;;2.40;99.90;;;;;;5022960;28;20056;-62
2022/01/07 06:52:05;;;;;;;0.00;0.00;;;2.40;99.90;;;;;;5023252;28;20073;-62
2022/01/07 06:54:31;;;;;;;0.00;0.00;;;2.40;99.90;;;;;;5023997;28;20435;-62
2022/01/07 06:56:57;;;;;;;0.00;0.00;;;2.40;99.90;;;;;;5023069;28;20064;-62
2022/01/07 06:59:23;;;;;;;0.00;0.00;;;2.40;99.90;;;;;;5023121;28;20053;-62
2022/01/07 07:01:49;;;;;;;0.00;0.00;;;2.50;99.90;;;;;;5023526;28;20064;-62
2022/01/07 07:04:15;;;;;;;0.13;0.13;;;2.50;99.90;;;;;;5022857;28;20050;-62
2022/01/07 07:06:41;;;;;;;0.00;0.00;;;2.50;99.90;;;;;;5022804;28;20073;-61
2022/01/07 07:09:07;;;;;;;0.00;0.00;;;2.50;99.90;;;;;;5023568;28;20683;-62
2022/01/07 07:11:33;;;;;;;0.00;0.00;;;2.50;99.90;;;;;;5023085;28;20057;-65
2022/01/07 07:13:59;;;;;;;0.00;0.00;;;2.50;99.90;;;;;;5023447;28;20050;-64
2022/01/07 07:16:25;;;;;;;0.10;0.10;;;2.50;99.90;;;;;;5021848;28;20048;-65
2022/01/07 07:18:50;;;;;;;0.25;0.25;;;2.50;99.90;;;;;;5022416;28;20045;-65
2022/01/07 07:21:16;;;;;;;0.00;0.00;;;2.50;99.90;;;;;;5023191;28;20535;-65
2022/01/07 07:23:42;;;;;;;0.00;0.00;;;2.50;99.90;;;;;;5022979;28;20099;-62
2022/01/07 07:26:08;;;;;;;0.00;0.00;;;2.50;99.90;;;;;;5022504;28;20048;-65
2022/01/07 07:28:35;;;;;;;0.00;0.00;;;2.80;99.90;;;;;;5029171;28;20400;-63
2022/01/07 07:31:04;;;;;;;0.00;0.00;;;2.50;99.90;;;;;;5027698;28;20053;-62
2022/01/07 07:33:31;;;;;;;0.20;0.20;;;2.50;99.90;;;;;;5022438;28;20060;-62
2022/01/07 07:38:44;;;;;;;0.00;0.00;;;2.60;99.90;;;;;;5022600;28;20049;-64
2022/01/07 07:41:10;;;;;;;0.00;0.00;;;2.60;99.90;;;;;;5022439;28;20095;-62
2022/01/07 07:43:37;;;;;;;0.00;0.00;;;2.60;99.90;;;;;;5022423;28;20162;-62
2022/01/07 07:46:04;;;;;;;0.00;0.00;;;2.60;99.90;;;;;;5022509;28;20033;-62
2022/01/07 07:48:33;;;;;;;0.00;0.00;;;2.60;99.90;;;;;;5022101;28;20131;-62
2022/01/07 07:50:59;;;;;;;0.30;0.30;;;2.60;99.90;;;;;;5020905;28;20042;-63
2022/01/07 07:53:25;;;;;;;0.00;0.00;;;2.60;99.90;;;;;;5022683;28;20071;-63
2022/01/07 07:55:53;;;;;;;0.00;0.00;;;2.60;99.90;;;;;;5022391;28;20469;-62
2022/01/07 07:58:24;;;;;;;0.00;0.00;;;2.70;99.90;;;;;;5020386;28;20037;-62
2022/01/07 08:00:50;;;;;;;0.00;0.00;;;2.70;99.90;;;;;;5022194;28;20121;-62
2022/01/07 08:03:16;;;;;;;0.00;0.00;;;2.70;99.90;;;;;;5020039;28;20054;-63
2022/01/07 08:05:42;;;;;;;0.00;0.00;;;2.70;99.90;;;;;;5021747;28;20045;-62
2022/01/07 08:08:08;;;;;;;1.67;1.55;;;2.70;99.90;;;;;;5021295;28;20068;-63
2022/01/07 08:10:34;;;;;;;0.00;0.00;;;2.70;99.90;;;;;;5022054;28;20060;-63
2022/01/07 08:18:18;;;;;;;0.00;0.00;;;2.80;99.90;;;;;;5021445;28;20046;-63
2022/01/07 08:20:44;;;;;;;0.00;0.00;;;2.80;99.90;;;;;;5021872;28;20455;-63
2022/01/07 08:23:10;;;;;;;0.00;0.00;;;3.00;99.90;;;;;;5021105;28;20046;-63
2022/01/07 08:25:36;;;;;;;0.00;0.00;;;2.80;99.90;;;;;;5022228;28;20049;-63
2022/01/07 08:28:04;;;;;;;0.80;0.80;;;2.90;99.90;;;;;;5024234;28;20042;-63
2022/01/07 08:30:36;;;;;;;0.00;0.00;;;2.90;99.90;;;;;;5031034;28;20052;-63
2022/01/07 08:35:50;;;;;;;0.00;0.00;;;2.90;99.90;;;;;;5021420;28;20049;-63
2022/01/07 08:38:15;;;;;;;0.00;0.00;;;3.00;99.90;;;;;;5020873;28;20067;-63
2022/01/07 08:40:41;;;;;;;0.00;0.00;;;3.00;99.90;;;;;;5021479;28;20060;-62
2022/01/07 08:43:08;;;;;;;0.00;0.00;;;3.00;99.90;;;;;;5021656;28;20616;-62
2022/01/07 08:45:34;;;;;;;0.00;0.00;;;3.10;99.90;;;;;;5021379;28;20471;-63
2022/01/07 08:48:00;;;;;;;0.10;0.10;;;3.10;99.90;;;;;;5021158;28;20037;-62
2022/01/07 08:50:25;;;;;;;0.08;0.08;;;3.10;99.90;;;;;;5020380;28;20128;-62
2022/01/07 08:52:52;;;;;;;0.00;0.00;;;3.10;99.90;;;;;;5021269;28;20061;-62
2022/01/07 08:55:19;;;;;;;0.00;0.00;;;3.10;99.90;;;;;;5020582;28;20053;-62
2022/01/07 08:57:45;;;;;;;0.00;0.00;;;3.20;99.90;;;;;;5020963;28;20138;-63
2022/01/07 09:00:12;;;;;;;0.00;0.00;;;4.40;99.90;;;;;;5019767;28;20045;-63
2022/01/07 09:02:38;;;;;;;0.00;0.00;;;3.20;99.90;;;;;;5020983;28;20695;-62
2022/01/07 09:05:04;;;;;;;0.00;0.00;;;3.20;99.90;;;;;;5019752;28;20119;-63
2022/01/07 09:07:29;;;;;;;0.00;0.00;;;3.30;99.90;;;;;;5021736;28;20480;-63
2022/01/07 09:09:55;;;;;;;0.00;0.00;;;3.30;99.90;;;;;;5020908;28;20064;-62
2022/01/07 09:12:21;;;;;;;1.25;0.52;;;3.30;99.90;;;;;;5020947;28;20045;-62
2022/01/07 09:14:46;;;;;;;0.50;0.50;;;3.40;99.90;;;;;;5035245;28;20053;-63
2022/01/07 09:17:12;;;;;;;0.05;0.05;;;3.40;99.90;;;;;;5020993;28;20045;-64
2022/01/07 09:19:38;;;;;;;0.28;0.25;;;3.40;99.90;;;;;;5019984;28;20634;-64
2022/01/07 09:22:03;;;;;;;0.00;0.00;;;3.40;99.90;;;;;;5020793;28;20051;-63
2022/01/07 09:24:29;;;;;;;0.20;0.20;;;3.40;99.90;;;;;;5020314;28;20115;-64
2022/01/07 09:26:59;;;;;;;0.17;0.17;;;3.50;99.90;;;;;;5020448;28;20423;-64
2022/01/07 09:29:26;;;;;;;0.08;0.08;;;3.50;99.90;;;;;;5032075;28;20037;-62
2022/01/07 09:31:53;;;;;;;0.00;0.00;;;3.50;99.90;;;;;;5019402;28;20735;-64
2022/01/07 09:34:19;;;;;;;0.00;0.00;;;3.50;99.90;;;;;;5019280;28;20041;-64
2022/01/07 09:36:44;;;;;;;0.00;0.00;;;3.50;99.90;;;;;;5020512;28;20041;-63
2022/01/07 09:39:10;;;;;;;0.00;0.00;;;3.60;99.90;;;;;;5020631;28;20866;-63
2022/01/07 09:41:36;;;;;;;0.10;0.10;;;3.60;99.90;;;;;;5020703;28;20161;-63
2022/01/07 09:44:02;;;;;;;0.00;0.00;;;3.60;99.90;;;;;;5018693;28;20068;-64
2022/01/07 09:46:28;;;;;;;0.20;0.20;;;3.70;99.90;;;;;;5021001;28;20427;-63
2022/01/07 09:48:54;;;;;;;0.05;0.05;;;3.70;99.90;;;;;;5018201;28;20041;-63
2022/01/07 09:51:19;;;;;;;0.35;0.35;;;3.70;99.90;;;;;;5020665;28;20049;-63
2022/01/07 09:53:45;;;;;;;0.00;0.00;;;3.70;99.90;;;;;;5020203;28;20452;-63
2022/01/07 09:56:12;;;;;;;0.00;0.00;;;3.80;99.90;;;;;;5020543;28;20488;-63
2022/01/07 09:58:37;;;;;;;1.67;0.38;;;3.80;99.90;;;;;;5020424;28;20042;-63
2022/01/07 10:01:16;;;;;;;0.00;0.00;;;3.80;99.90;;;;;;5019248;28;20459;-64
2022/01/07 10:03:43;;;;;;;0.00;0.00;;;3.80;99.90;;;;;;5019364;28;20057;-63
2022/01/07 10:06:21;;;;;;;0.00;0.00;;;3.90;99.90;;;;;;5020208;28;20049;-64
2022/01/07 10:09:12;;;;;;;0.00;0.00;;;3.90;99.90;;;;;;5019641;28;20045;-64
2022/01/07 10:11:38;;;;;;;0.00;0.00;;;4.00;99.90;;;;;;5022043;28;20061;-64
2022/01/07 10:14:19;;;;;;;0.00;0.00;;;3.90;99.90;;;;;;5034707;28;20137;-64
2022/01/07 10:16:52;;;;;;;0.00;0.00;;;4.00;99.90;;;;;;5035623;28;20110;-64
2022/01/07 10:19:39;;;;;;;0.00;0.00;;;4.00;99.90;;;;;;5042878;28;20083;-63
2022/01/07 10:22:11;;;;;;;0.20;0.20;;;4.10;99.90;;;;;;5023469;28;20060;-63
2022/01/07 10:25:00;;;;;;;0.30;0.30;;;4.20;99.90;;;;;;5023794;28;20037;-63
2022/01/07 10:27:37;;;;;;;0.00;0.00;;;4.20;99.90;;;;;;5025595;28;20059;-63
2022/01/07 10:30:10;;;;;;;1.00;0.88;;;4.10;99.90;;;;;;5034139;28;20472;-63
2022/01/07 10:32:37;;;;;;;0.00;0.00;;;4.10;99.90;;;;;;5032564;28;20128;-64
2022/01/07 10:35:17;;;;;;;0.00;0.00;;;4.00;99.90;;;;;;5042624;28;20076;-64
2022/01/07 10:37:57;;;;;;;0.20;0.20;;;4.10;99.90;;;;;;5042600;28;20049;-64
2022/01/07 10:40:31;;;;;;;0.13;0.13;;;4.10;99.90;;;;;;5043291;28;20423;-63
2022/01/07 10:43:34;;;;;;;0.00;0.00;;;4.10;99.90;;;;;;5043477;28;20106;-64
2022/01/07 10:46:01;;;;;;;0.00;0.00;;;4.10;99.90;;;;;;5000449;28;20041;-64
2022/01/07 10:48:36;;;;;;;0.05;0.05;;;4.10;99.90;;;;;;5033909;28;20045;-63
2022/01/07 10:51:07;;;;;;;0.10;0.10;;;4.10;99.90;;;;;;5043620;28;20119;-63
2022/01/07 10:53:32;;;;;;;0.15;0.08;;;4.10;99.90;;;;;;5043586;28;20040;-62
2022/01/07 10:56:12;;;;;;;0.00;0.00;;;4.20;99.90;;;;;;5043966;28;20053;-63
2022/01/07 10:58:46;;;;;;;0.00;0.00;;;4.20;99.90;;;;;;5042125;28;20048;-61
2022/01/07 11:01:21;;;;;;;0.00;0.00;;;4.20;99.90;;;;;;5041757;28;20208;-63
2022/01/07 11:03:54;;;;;;;0.00;0.00;;;4.30;99.90;;;;;;5040584;28;20146;-63
2022/01/07 11:06:21;;;;;;;0.00;0.00;;;4.30;99.90;;;;;;5043326;28;20041;-63
2022/01/07 11:08:49;;;;;;;0.57;0.40;;;4.40;99.90;;;;;;5042740;28;20063;-64
2022/01/07 11:11:15;;;;;;;0.00;0.00;;;4.70;99.90;;;;;;5042484;28;20071;-64
2022/01/07 11:13:42;;;;;;;0.00;0.00;;;5.10;99.90;;;;;;5043010;28;20044;-65
2022/01/07 11:16:07;;;;;;;0.45;0.45;;;5.50;99.90;;;;;;5042641;28;20091;-64
2022/01/07 11:18:37;;;;;;;0.20;0.20;;;5.90;99.90;;;;;;5042654;28;20127;-64
2022/01/07 11:21:04;;;;;;;0.47;0.47;;;4.90;99.90;;;;;;5042623;28;20127;-64
2022/01/07 11:23:31;;;;;;;0.00;0.00;;;6.10;99.90;;;;;;5042827;28;20577;-63
2022/01/07 11:26:10;;;;;;;0.15;0.10;;;5.50;99.90;;;;;;5041448;28;20053;-63
2022/01/07 11:28:37;;;;;;;0.00;0.00;;;5.00;99.90;;;;;;5035878;28;20139;-63
2022/01/07 11:31:14;;;;;;;0.03;0.03;;;4.80;99.90;;;;;;5025418;28;20415;-63
2022/01/07 11:33:41;;;;;;;0.35;0.30;;;4.70;99.90;;;;;;5022215;28;20403;-63
2022/01/07 11:36:11;;;;;;;0.10;0.10;;;4.60;99.90;;;;;;5022477;28;20049;-63
2022/01/07 11:38:43;;;;;;;0.00;0.00;;;4.60;99.90;;;;;;5023082;28;20128;-63
2022/01/07 11:41:12;;;;;;;0.00;0.00;;;4.70;99.90;;;;;;5022608;28;20052;-62
2022/01/07 11:43:43;;;;;;;0.00;0.00;;;5.20;99.90;;;;;;5037544;28;20045;-63
2022/01/07 11:46:30;;;;;;;0.00;0.00;;;5.50;99.90;;;;;;5022641;28;20034;-63
2022/01/07 11:48:59;;;;;;;0.00;0.00;;;7.00;99.90;;;;;;5021549;28;20033;-63
2022/01/07 11:51:36;;;;;;;0.00;0.00;;;5.40;99.90;;;;;;5021953;28;20041;-63
2022/01/07 11:54:04;;;;;;;0.00;0.00;;;5.40;99.90;;;;;;5022823;28;20129;-63
2022/01/07 11:56:34;;;;;;;0.00;0.00;;;5.30;99.90;;;;;;5021929;28;20061;-63
2022/01/07 11:59:14;;;;;;;0.00;0.00;;;5.20;99.90;;;;;;5022486;28;20338;-63
2022/01/07 12:01:40;;;;;;;0.00;0.00;;;5.00;99.90;;;;;;5021921;28;20041;-63
2022/01/07 12:04:19;;;;;;;0.10;0.10;;;5.00;99.90;;;;;;5021161;28;20048;-69
2022/01/07 12:06:46;;;;;;;0.00;0.00;;;5.10;99.90;;;;;;5022417;28;20136;-67
2022/01/07 12:09:20;;;;;;;0.00;0.00;;;5.10;99.90;;;;;;5022221;28;20045;-67
2022/01/07 12:12:07;;;;;;;0.00;0.00;;;5.20;99.90;;;;;;5022293;28;20081;-67
2022/01/07 12:14:37;;;;;;;0.00;0.00;;;5.10;99.90;;;;;;5022431;28;20087;-66
2022/01/07 12:17:05;;;;;;;0.00;0.00;;;5.20;99.90;;;;;;5041194;28;20041;-61
2022/01/07 12:19:36;;;;;;;0.00;0.00;;;5.60;99.90;;;;;;5042369;28;20047;-66
2022/01/07 12:22:06;;;;;;;0.00;0.00;;;5.10;99.90;;;;;;5032004;28;20048;-67
2022/01/07 12:24:32;;;;;;;0.00;0.00;;;5.00;99.90;;;;;;5040171;28;20115;-67
2022/01/07 12:27:03;;;;;;;0.00;0.00;;;5.00;99.90;;;;;;5034669;28;20041;-65
2022/01/07 12:29:34;;;;;;;0.38;0.38;;;4.90;99.90;;;;;;5032029;28;20053;-66
2022/01/07 12:32:02;;;;;;;0.10;0.10;;;4.00;99.90;;;;;;5021279;28;20599;-66
2022/01/07 12:34:30;;;;;;;0.13;0.13;;;4.80;99.90;;;;;;5020796;28;20114;-65
2022/01/07 12:36:58;;;;;;;0.00;0.00;;;5.20;99.90;;;;;;5021625;28;20422;-66
2022/01/07 12:39:38;;;;;;;0.52;0.52;;;4.90;99.90;;;;;;5032651;28;20045;-66
2022/01/07 12:42:05;;;;;;;0.00;0.00;;;4.80;99.90;;;;;;5040778;28;20118;-66
2022/01/07 12:44:46;;;;;;;0.32;0.25;;;4.80;99.90;;;;;;5041822;28;20395;-66
2022/01/07 12:47:16;;;;;;;0.10;0.10;;;4.90;99.90;;;;;;5040862;28;20124;-66
2022/01/07 12:49:46;;;;;;;0.00;0.00;;;5.00;99.90;;;;;;5040360;28;20051;-66
2022/01/07 12:52:31;;;;;;;0.20;0.20;;;5.00;99.90;;;;;;5041348;28;20052;-67
2022/01/07 12:55:02;;;;;;;;;;;5.00;99.90;;;;;;5041402;28;20045;-67
2022/01/07 12:57:29;;;;;;;0.00;0.00;;;4.90;99.90;;;;;;5041603;28;19921;-67
2022/01/07 13:00:09;;;;;;;0.00;0.00;;;4.80;99.90;;;;;;5040800;28;20147;-67
2022/01/07 13:02:36;;;;;;;0.30;0.30;;;4.80;99.90;;;;;;5040154;28;20045;-68
2022/01/07 13:05:14;;;;;;;0.10;0.10;;;4.80;99.90;;;;;;5041529;28;20045;-67
2022/01/07 13:07:45;;;;;;;0.00;0.00;;;4.80;99.90;;;;;;5040101;28;20072;-67
2022/01/07 13:10:11;;;;;;;0.00;0.00;;;4.70;99.90;;;;;;5040751;28;20041;-67
2022/01/07 13:12:38;;;;;;;0.00;0.00;;;4.50;99.90;;;;;;5040769;28;20048;-67